Avondale, Missouri
Current Conditions -  °F | °C
As of 5:54 AM on Friday 21 Nov 2014 (Local Time) from KMKC Reporting Station
Clear Clear  
Wind Chill: 16°   Ceiling: Unl
Heat Index: 25°   Visibility: 10mi
Dew Point: 16°   Wind: 8mph
Humidity: 69%   Direction: 70°ENE
Pressure: 30.25"   Gusts: NA
Location:  39.1657°N, 94.5231°W
Report Text: KMKC 211154Z 07007KT 10SM CLR M04/M09 A3025 RMK AO2 SLP251 T10391089 11022 21044 55007
Loading
Personal Weather Stations






























Interactive Weather Map New forecast layout! Learn more

10-Day Weather Forecast

Advertisements
Track Severe Weather on mobile